sensor_id;sensor_type;location;lat;lon;timestamp;temperature;humidity
2030;DHT22;1020;48.854;8.830;2023-04-06T00:00:31;1.00;99.90
2030;DHT22;1020;48.854;8.830;2023-04-06T00:02:59;1.00;99.90
2030;DHT22;1020;48.854;8.830;2023-04-06T00:05:26;1.00;99.90
2030;DHT22;1020;48.854;8.830;2023-04-06T00:07:56;1.10;99.90
2030;DHT22;1020;48.854;8.830;2023-04-06T00:10:23;1.10;99.90
2030;DHT22;1020;48.854;8.830;2023-04-06T00:12:50;1.10;99.90
2030;DHT22;1020;48.854;8.830;2023-04-06T00:15:17;1.10;99.90
2030;DHT22;1020;48.854;8.830;2023-04-06T00:17:43;1.10;99.90
2030;DHT22;1020;48.854;8.830;2023-04-06T00:20:12;1.10;99.90
2030;DHT22;1020;48.854;8.830;2023-04-06T00:22:38;1.10;99.90
2030;DHT22;1020;48.854;8.830;2023-04-06T00:25:06;1.00;99.90
2030;DHT22;1020;48.854;8.830;2023-04-06T00:27:33;1.00;99.90
2030;DHT22;1020;48.854;8.830;2023-04-06T00:30:00;1.00;99.90
2030;DHT22;1020;48.854;8.830;2023-04-06T00:32:26;1.00;99.90
2030;DHT22;1020;48.854;8.830;2023-04-06T00:34:53;0.90;99.90
2030;DHT22;1020;48.854;8.830;2023-04-06T00:37:21;1.00;99.90
2030;DHT22;1020;48.854;8.830;2023-04-06T00:39:48;1.00;99.90
2030;DHT22;1020;48.854;8.830;2023-04-06T00:42:17;1.00;99.90
2030;DHT22;1020;48.854;8.830;2023-04-06T00:44:50;0.90;99.90
2030;DHT22;1020;48.854;8.830;2023-04-06T00:47:17;0.90;99.90
2030;DHT22;1020;48.854;8.830;2023-04-06T00:49:44;1.00;99.90
2030;DHT22;1020;48.854;8.830;2023-04-06T00:52:10;1.00;99.90
2030;DHT22;1020;48.854;8.830;2023-04-06T00:54:39;1.10;99.90
2030;DHT22;1020;48.854;8.830;2023-04-06T00:57:05;1.10;99.90
2030;DHT22;1020;48.854;8.830;2023-04-06T00:59:32;1.20;99.90
2030;DHT22;1020;48.854;8.830;2023-04-06T01:01:59;1.30;99.90
2030;DHT22;1020;48.854;8.830;2023-04-06T01:04:26;1.30;99.90
2030;DHT22;1020;48.854;8.830;2023-04-06T01:06:53;1.30;99.90
2030;DHT22;1020;48.854;8.830;2023-04-06T01:09:20;1.30;99.90
2030;DHT22;1020;48.854;8.830;2023-04-06T01:11:48;1.30;99.90
2030;DHT22;1020;48.854;8.830;2023-04-06T01:14:15;1.30;99.90
2030;DHT22;1020;48.854;8.830;2023-04-06T01:16:42;1.40;99.90
2030;DHT22;1020;48.854;8.830;2023-04-06T01:19:09;1.20;99.90
2030;DHT22;1020;48.854;8.830;2023-04-06T01:21:36;1.20;99.90
2030;DHT22;1020;48.854;8.830;2023-04-06T01:24:06;1.20;99.90
2030;DHT22;1020;48.854;8.830;2023-04-06T01:26:34;1.10;99.90
2030;DHT22;1020;48.854;8.830;2023-04-06T01:29:01;1.00;99.90
2030;DHT22;1020;48.854;8.830;2023-04-06T01:31:28;0.90;99.90
2030;DHT22;1020;48.854;8.830;2023-04-06T01:33:55;0.80;99.90
2030;DHT22;1020;48.854;8.830;2023-04-06T01:36:22;0.90;99.90
2030;DHT22;1020;48.854;8.830;2023-04-06T01:38:49;1.00;99.90
2030;DHT22;1020;48.854;8.830;2023-04-06T01:41:17;1.00;99.90
2030;DHT22;1020;48.854;8.830;2023-04-06T01:43:44;1.00;99.90
2030;DHT22;1020;48.854;8.830;2023-04-06T01:46:11;1.00;99.90
2030;DHT22;1020;48.854;8.830;2023-04-06T01:48:38;1.00;99.90
2030;DHT22;1020;48.854;8.830;2023-04-06T01:51:05;1.00;99.90
2030;DHT22;1020;48.854;8.830;2023-04-06T01:53:32;1.10;99.90
2030;DHT22;1020;48.854;8.830;2023-04-06T01:55:58;1.10;99.90
2030;DHT22;1020;48.854;8.830;2023-04-06T01:58:27;1.00;99.90
2030;DHT22;1020;48.854;8.830;2023-04-06T02:00:54;1.00;99.90
2030;DHT22;1020;48.854;8.830;2023-04-06T02:03:21;1.00;99.90
2030;DHT22;1020;48.854;8.830;2023-04-06T02:05:48;0.90;99.90
2030;DHT22;1020;48.854;8.830;2023-04-06T02:08:14;0.80;99.90
2030;DHT22;1020;48.854;8.830;2023-04-06T02:10:41;0.90;99.90
2030;DHT22;1020;48.854;8.830;2023-04-06T02:13:08;0.80;99.90
2030;DHT22;1020;48.854;8.830;2023-04-06T02:15:36;0.70;99.90
2030;DHT22;1020;48.854;8.830;2023-04-06T02:18:03;0.50;99.90
2030;DHT22;1020;48.854;8.830;2023-04-06T02:20:30;0.50;99.90
2030;DHT22;1020;48.854;8.830;2023-04-06T02:22:59;0.40;99.90
2030;DHT22;1020;48.854;8.830;2023-04-06T02:25:25;0.40;99.90
2030;DHT22;1020;48.854;8.830;2023-04-06T02:27:53;0.30;99.90
2030;DHT22;1020;48.854;8.830;2023-04-06T02:30:21;0.30;99.90
2030;DHT22;1020;48.854;8.830;2023-04-06T02:32:50;0.60;99.90
2030;DHT22;1020;48.854;8.830;2023-04-06T02:35:19;0.30;99.90
2030;DHT22;1020;48.854;8.830;2023-04-06T02:40:14;0.40;99.90
2030;DHT22;1020;48.854;8.830;2023-04-06T02:42:42;0.50;99.90
2030;DHT22;1020;48.854;8.830;2023-04-06T02:45:10;0.50;99.90
2030;DHT22;1020;48.854;8.830;2023-04-06T02:47:38;0.40;99.90
2030;DHT22;1020;48.854;8.830;2023-04-06T02:50:07;0.40;99.90
2030;DHT22;1020;48.854;8.830;2023-04-06T02:52:35;0.30;99.90
2030;DHT22;1020;48.854;8.830;2023-04-06T02:55:02;0.30;99.90
2030;DHT22;1020;48.854;8.830;2023-04-06T02:57:30;0.20;99.90
2030;DHT22;1020;48.854;8.830;2023-04-06T02:59:58;0.80;99.90
2030;DHT22;1020;48.854;8.830;2023-04-06T03:02:26;0.10;99.90
2030;DHT22;1020;48.854;8.830;2023-04-06T03:04:53;0.50;99.90
2030;DHT22;1020;48.854;8.830;2023-04-06T03:07:22;0.10;99.90
2030;DHT22;1020;48.854;8.830;2023-04-06T03:09:50;0.10;99.90
2030;DHT22;1020;48.854;8.830;2023-04-06T03:12:16;0.10;99.90
2030;DHT22;1020;48.854;8.830;2023-04-06T03:14:43;0.10;99.90
2030;DHT22;1020;48.854;8.830;2023-04-06T03:17:10;0.10;99.90
2030;DHT22;1020;48.854;8.830;2023-04-06T03:19:37;0.20;99.90
2030;DHT22;1020;48.854;8.830;2023-04-06T03:22:03;0.20;99.90
2030;DHT22;1020;48.854;8.830;2023-04-06T03:24:31;0.30;99.90
2030;DHT22;1020;48.854;8.830;2023-04-06T03:26:58;0.30;99.90
2030;DHT22;1020;48.854;8.830;2023-04-06T03:29:25;0.40;99.90
2030;DHT22;1020;48.854;8.830;2023-04-06T03:31:52;0.40;99.90
2030;DHT22;1020;48.854;8.830;2023-04-06T03:34:19;0.20;99.90
2030;DHT22;1020;48.854;8.830;2023-04-06T03:36:46;0.10;99.90
2030;DHT22;1020;48.854;8.830;2023-04-06T03:39:12;0.10;99.90
2030;DHT22;1020;48.854;8.830;2023-04-06T03:41:40;0.10;99.90
2030;DHT22;1020;48.854;8.830;2023-04-06T03:44:07;0.20;99.90
2030;DHT22;1020;48.854;8.830;2023-04-06T03:46:34;0.30;99.90
2030;DHT22;1020;48.854;8.830;2023-04-06T03:49:00;0.30;99.90
2030;DHT22;1020;48.854;8.830;2023-04-06T03:51:27;0.20;99.90
2030;DHT22;1020;48.854;8.830;2023-04-06T03:53:54;0.20;99.90
2030;DHT22;1020;48.854;8.830;2023-04-06T03:56:21;0.10;99.90
2030;DHT22;1020;48.854;8.830;2023-04-06T03:58:49;-0.10;99.90
2030;DHT22;1020;48.854;8.830;2023-04-06T04:01:16;-0.10;99.90
2030;DHT22;1020;48.854;8.830;2023-04-06T04:03:43;0.00;99.90
2030;DHT22;1020;48.854;8.830;2023-04-06T04:06:10;0.00;99.90
2030;DHT22;1020;48.854;8.830;2023-04-06T04:08:37;-0.10;99.90
2030;DHT22;1020;48.854;8.830;2023-04-06T04:11:04;-0.10;99.90
2030;DHT22;1020;48.854;8.830;2023-04-06T04:13:30;-0.10;99.90
2030;DHT22;1020;48.854;8.830;2023-04-06T04:15:58;-0.10;99.90
2030;DHT22;1020;48.854;8.830;2023-04-06T04:18:25;-0.10;99.90
2030;DHT22;1020;48.854;8.830;2023-04-06T04:20:52;-0.10;99.90
2030;DHT22;1020;48.854;8.830;2023-04-06T04:23:18;-0.20;99.90
2030;DHT22;1020;48.854;8.830;2023-04-06T04:25:45;-0.20;99.90
2030;DHT22;1020;48.854;8.830;2023-04-06T04:28:12;-0.10;99.90
2030;DHT22;1020;48.854;8.830;2023-04-06T04:30:39;-0.10;99.90
2030;DHT22;1020;48.854;8.830;2023-04-06T04:33:07;-0.10;99.90
2030;DHT22;1020;48.854;8.830;2023-04-06T04:35:34;-0.10;99.90
2030;DHT22;1020;48.854;8.830;2023-04-06T04:38:00;-0.20;99.90
2030;DHT22;1020;48.854;8.830;2023-04-06T04:40:27;-0.20;99.90
2030;DHT22;1020;48.854;8.830;2023-04-06T04:42:54;-0.30;99.90
2030;DHT22;1020;48.854;8.830;2023-04-06T04:45:20;-0.20;99.90
2030;DHT22;1020;48.854;8.830;2023-04-06T04:47:47;-0.30;1.00
2030;DHT22;1020;48.854;8.830;2023-04-06T04:50:15;-0.30;1.00
2030;DHT22;1020;48.854;8.830;2023-04-06T04:52:42;-0.40;1.00
2030;DHT22;1020;48.854;8.830;2023-04-06T04:55:09;-0.40;1.00
2030;DHT22;1020;48.854;8.830;2023-04-06T04:57:36;-0.40;1.00
2030;DHT22;1020;48.854;8.830;2023-04-06T05:00:03;-0.50;1.00
2030;DHT22;1020;48.854;8.830;2023-04-06T05:02:30;-0.50;1.00
2030;DHT22;1020;48.854;8.830;2023-04-06T05:04:56;-0.50;1.00
2030;DHT22;1020;48.854;8.830;2023-04-06T05:07:24;-0.50;1.00
2030;DHT22;1020;48.854;8.830;2023-04-06T05:09:51;-0.60;1.00
2030;DHT22;1020;48.854;8.830;2023-04-06T05:12:18;-0.50;1.00
2030;DHT22;1020;48.854;8.830;2023-04-06T05:14:45;-0.50;1.00
2030;DHT22;1020;48.854;8.830;2023-04-06T05:17:12;-0.50;1.00
2030;DHT22;1020;48.854;8.830;2023-04-06T05:19:39;-0.40;1.00
2030;DHT22;1020;48.854;8.830;2023-04-06T05:22:06;-0.40;1.00
2030;DHT22;1020;48.854;8.830;2023-04-06T05:24:34;-0.30;1.00
2030;DHT22;1020;48.854;8.830;2023-04-06T05:27:02;-0.30;1.00
2030;DHT22;1020;48.854;8.830;2023-04-06T05:29:29;-0.30;1.00
2030;DHT22;1020;48.854;8.830;2023-04-06T05:31:56;-0.20;1.00
2030;DHT22;1020;48.854;8.830;2023-04-06T05:34:23;-0.10;1.00
2030;DHT22;1020;48.854;8.830;2023-04-06T05:36:49;-0.10;1.00
2030;DHT22;1020;48.854;8.830;2023-04-06T05:39:16;-0.10;1.00
2030;DHT22;1020;48.854;8.830;2023-04-06T05:41:44;-0.10;1.00
2030;DHT22;1020;48.854;8.830;2023-04-06T05:44:11;0.00;1.00
2030;DHT22;1020;48.854;8.830;2023-04-06T05:46:37;0.10;1.00
2030;DHT22;1020;48.854;8.830;2023-04-06T05:49:04;0.20;99.90
2030;DHT22;1020;48.854;8.830;2023-04-06T05:51:31;-1.50;99.90
2030;DHT22;1020;48.854;8.830;2023-04-06T05:53:58;0.30;99.90
2030;DHT22;1020;48.854;8.830;2023-04-06T05:56:25;0.40;99.90
2030;DHT22;1020;48.854;8.830;2023-04-06T05:58:53;0.40;99.90
2030;DHT22;1020;48.854;8.830;2023-04-06T06:01:20;0.50;99.90
2030;DHT22;1020;48.854;8.830;2023-04-06T06:03:47;0.60;99.90
2030;DHT22;1020;48.854;8.830;2023-04-06T06:06:13;0.70;99.90
2030;DHT22;1020;48.854;8.830;2023-04-06T06:08:40;0.70;99.90
2030;DHT22;1020;48.854;8.830;2023-04-06T06:11:07;0.70;99.90
2030;DHT22;1020;48.854;8.830;2023-04-06T06:13:34;0.90;99.90
2030;DHT22;1020;48.854;8.830;2023-04-06T06:16:02;1.00;99.90
2030;DHT22;1020;48.854;8.830;2023-04-06T06:18:30;1.00;99.90
2030;DHT22;1020;48.854;8.830;2023-04-06T06:20:57;1.10;99.90
2030;DHT22;1020;48.854;8.830;2023-04-06T06:23:24;1.20;99.90
2030;DHT22;1020;48.854;8.830;2023-04-06T06:25:51;1.30;99.90
2030;DHT22;1020;48.854;8.830;2023-04-06T06:28:17;1.40;99.90
2030;DHT22;1020;48.854;8.830;2023-04-06T06:30:44;1.40;99.90
2030;DHT22;1020;48.854;8.830;2023-04-06T06:33:12;1.50;99.90
2030;DHT22;1020;48.854;8.830;2023-04-06T06:35:39;1.60;99.90
2030;DHT22;1020;48.854;8.830;2023-04-06T06:38:06;1.70;99.90
2030;DHT22;1020;48.854;8.830;2023-04-06T06:40:33;1.80;99.90
2030;DHT22;1020;48.854;8.830;2023-04-06T06:43:01;2.00;99.90
2030;DHT22;1020;48.854;8.830;2023-04-06T06:45:28;2.10;99.90
2030;DHT22;1020;48.854;8.830;2023-04-06T06:47:55;2.20;99.90
2030;DHT22;1020;48.854;8.830;2023-04-06T06:50:24;4.80;99.90
2030;DHT22;1020;48.854;8.830;2023-04-06T06:55:18;2.60;99.90
2030;DHT22;1020;48.854;8.830;2023-04-06T06:57:46;4.00;99.90
2030;DHT22;1020;48.854;8.830;2023-04-06T07:00:13;3.00;99.90
2030;DHT22;1020;48.854;8.830;2023-04-06T07:02:40;5.30;99.90
2030;DHT22;1020;48.854;8.830;2023-04-06T07:05:07;3.60;99.90
2030;DHT22;1020;48.854;8.830;2023-04-06T07:07:36;4.30;99.90
2030;DHT22;1020;48.854;8.830;2023-04-06T07:10:03;5.00;99.90
2030;DHT22;1020;48.854;8.830;2023-04-06T07:12:30;5.80;99.90
2030;DHT22;1020;48.854;8.830;2023-04-06T07:14:56;7.00;99.90
2030;DHT22;1020;48.854;8.830;2023-04-06T07:17:23;7.80;99.90
2030;DHT22;1020;48.854;8.830;2023-04-06T07:19:50;10.80;99.90
2030;DHT22;1020;48.854;8.830;2023-04-06T07:22:17;9.40;99.90
2030;DHT22;1020;48.854;8.830;2023-04-06T07:24:45;10.20;99.90
2030;DHT22;1020;48.854;8.830;2023-04-06T07:27:12;11.50;99.90
2030;DHT22;1020;48.854;8.830;2023-04-06T07:29:38;12.00;99.90
2030;DHT22;1020;48.854;8.830;2023-04-06T07:32:06;12.90;99.90
2030;DHT22;1020;48.854;8.830;2023-04-06T07:34:32;13.90;99.90
2030;DHT22;1020;48.854;8.830;2023-04-06T07:36:59;15.30;99.90
2030;DHT22;1020;48.854;8.830;2023-04-06T07:39:28;14.70;99.90
2030;DHT22;1020;48.854;8.830;2023-04-06T07:41:56;15.60;99.90
2030;DHT22;1020;48.854;8.830;2023-04-06T07:44:23;16.10;99.90
2030;DHT22;1020;48.854;8.830;2023-04-06T07:46:50;16.70;99.90
2030;DHT22;1020;48.854;8.830;2023-04-06T07:49:16;17.60;99.90
2030;DHT22;1020;48.854;8.830;2023-04-06T07:51:43;18.20;99.90
2030;DHT22;1020;48.854;8.830;2023-04-06T07:54:10;19.00;99.90
2030;DHT22;1020;48.854;8.830;2023-04-06T07:56:37;19.20;99.90
2030;DHT22;1020;48.854;8.830;2023-04-06T07:59:05;19.50;99.90
2030;DHT22;1020;48.854;8.830;2023-04-06T08:01:32;20.10;99.90
2030;DHT22;1020;48.854;8.830;2023-04-06T08:03:58;18.40;99.90
2030;DHT22;1020;48.854;8.830;2023-04-06T08:06:27;18.20;99.90
2030;DHT22;1020;48.854;8.830;2023-04-06T08:08:54;18.90;99.90
2030;DHT22;1020;48.854;8.830;2023-04-06T08:11:21;18.90;99.90
2030;DHT22;1020;48.854;8.830;2023-04-06T08:13:47;19.10;99.90
2030;DHT22;1020;48.854;8.830;2023-04-06T08:16:16;20.40;99.90
2030;DHT22;1020;48.854;8.830;2023-04-06T08:18:42;19.70;99.90
2030;DHT22;1020;48.854;8.830;2023-04-06T08:21:09;19.00;99.90
2030;DHT22;1020;48.854;8.830;2023-04-06T08:23:36;19.10;99.90
2030;DHT22;1020;48.854;8.830;2023-04-06T08:26:03;18.90;99.90
2030;DHT22;1020;48.854;8.830;2023-04-06T08:28:30;18.90;99.90
2030;DHT22;1020;48.854;8.830;2023-04-06T08:30:56;19.70;99.90
2030;DHT22;1020;48.854;8.830;2023-04-06T08:33:24;19.60;99.90
2030;DHT22;1020;48.854;8.830;2023-04-06T08:35:51;19.50;99.90
2030;DHT22;1020;48.854;8.830;2023-04-06T08:38:18;21.00;99.90
2030;DHT22;1020;48.854;8.830;2023-04-06T08:40:45;21.10;99.90
2030;DHT22;1020;48.854;8.830;2023-04-06T08:43:14;20.90;99.90
2030;DHT22;1020;48.854;8.830;2023-04-06T08:45:41;20.00;99.90
2030;DHT22;1020;48.854;8.830;2023-04-06T08:48:08;19.20;99.90
2030;DHT22;1020;48.854;8.830;2023-04-06T08:50:38;18.70;99.90
2030;DHT22;1020;48.854;8.830;2023-04-06T08:53:06;17.00;99.90
2030;DHT22;1020;48.854;8.830;2023-04-06T08:55:33;16.40;99.90
2030;DHT22;1020;48.854;8.830;2023-04-06T08:58:01;17.00;99.90
2030;DHT22;1020;48.854;8.830;2023-04-06T09:00:28;16.50;99.90
2030;DHT22;1020;48.854;8.830;2023-04-06T09:02:57;16.20;99.90
2030;DHT22;1020;48.854;8.830;2023-04-06T09:05:25;15.70;99.90
2030;DHT22;1020;48.854;8.830;2023-04-06T09:07:53;15.20;99.90
2030;DHT22;1020;48.854;8.830;2023-04-06T09:10:21;15.50;99.90
2030;DHT22;1020;48.854;8.830;2023-04-06T09:12:49;15.80;99.90
2030;DHT22;1020;48.854;8.830;2023-04-06T09:15:19;16.40;99.90
2030;DHT22;1020;48.854;8.830;2023-04-06T09:17:46;16.70;99.90
2030;DHT22;1020;48.854;8.830;2023-04-06T09:20:13;15.20;99.90
2030;DHT22;1020;48.854;8.830;2023-04-06T09:22:40;14.70;99.90
2030;DHT22;1020;48.854;8.830;2023-04-06T09:25:09;13.50;99.90
2030;DHT22;1020;48.854;8.830;2023-04-06T09:27:38;13.20;99.90
2030;DHT22;1020;48.854;8.830;2023-04-06T09:30:06;13.30;99.90
2030;DHT22;1020;48.854;8.830;2023-04-06T09:32:44;14.10;99.90
2030;DHT22;1020;48.854;8.830;2023-04-06T09:35:12;14.40;99.90
2030;DHT22;1020;48.854;8.830;2023-04-06T09:37:39;14.60;99.90
2030;DHT22;1020;48.854;8.830;2023-04-06T09:40:08;13.90;99.90
2030;DHT22;1020;48.854;8.830;2023-04-06T09:42:35;13.80;99.90
2030;DHT22;1020;48.854;8.830;2023-04-06T09:45:02;14.70;99.90
2030;DHT22;1020;48.854;8.830;2023-04-06T09:47:30;14.50;99.90
2030;DHT22;1020;48.854;8.830;2023-04-06T09:49:59;14.30;99.90
2030;DHT22;1020;48.854;8.830;2023-04-06T09:52:27;14.40;99.90
2030;DHT22;1020;48.854;8.830;2023-04-06T09:55:01;14.00;99.90
2030;DHT22;1020;48.854;8.830;2023-04-06T09:57:34;15.60;99.90
2030;DHT22;1020;48.854;8.830;2023-04-06T10:00:04;16.50;99.90
2030;DHT22;1020;48.854;8.830;2023-04-06T10:02:40;15.40;99.90
2030;DHT22;1020;48.854;8.830;2023-04-06T10:05:09;15.60;99.90
2030;DHT22;1020;48.854;8.830;2023-04-06T10:07:40;15.20;99.90
2030;DHT22;1020;48.854;8.830;2023-04-06T10:10:08;16.20;99.90
2030;DHT22;1020;48.854;8.830;2023-04-06T10:12:38;16.60;99.90
2030;DHT22;1020;48.854;8.830;2023-04-06T10:15:07;16.50;99.90
2030;DHT22;1020;48.854;8.830;2023-04-06T10:17:34;16.90;99.90
2030;DHT22;1020;48.854;8.830;2023-04-06T10:20:05;17.00;99.90
2030;DHT22;1020;48.854;8.830;2023-04-06T10:22:35;16.30;99.90
2030;DHT22;1020;48.854;8.830;2023-04-06T10:25:03;16.70;99.90
2030;DHT22;1020;48.854;8.830;2023-04-06T10:27:31;17.10;99.90
2030;DHT22;1020;48.854;8.830;2023-04-06T10:30:05;18.00;99.90
2030;DHT22;1020;48.854;8.830;2023-04-06T10:32:34;21.00;99.90
2030;DHT22;1020;48.854;8.830;2023-04-06T10:35:08;19.70;99.90
2030;DHT22;1020;48.854;8.830;2023-04-06T10:37:50;18.00;99.90
2030;DHT22;1020;48.854;8.830;2023-04-06T10:40:24;18.40;99.90
2030;DHT22;1020;48.854;8.830;2023-04-06T10:42:52;17.80;99.90
2030;DHT22;1020;48.854;8.830;2023-04-06T10:45:21;17.40;99.90
2030;DHT22;1020;48.854;8.830;2023-04-06T10:47:48;17.00;99.90
2030;DHT22;1020;48.854;8.830;2023-04-06T10:50:15;16.00;99.90
2030;DHT22;1020;48.854;8.830;2023-04-06T10:52:44;16.30;99.90
2030;DHT22;1020;48.854;8.830;2023-04-06T10:55:12;17.30;99.90
2030;DHT22;1020;48.854;8.830;2023-04-06T10:57:40;18.60;99.90
2030;DHT22;1020;48.854;8.830;2023-04-06T11:00:08;18.80;99.90
2030;DHT22;1020;48.854;8.830;2023-04-06T11:02:36;17.30;99.90
2030;DHT22;1020;48.854;8.830;2023-04-06T11:05:03;18.00;99.90
2030;DHT22;1020;48.854;8.830;2023-04-06T11:07:30;19.00;99.90
2030;DHT22;1020;48.854;8.830;2023-04-06T11:09:57;17.00;99.90
2030;DHT22;1020;48.854;8.830;2023-04-06T11:12:24;16.60;99.90
2030;DHT22;1020;48.854;8.830;2023-04-06T11:14:55;16.50;99.90
2030;DHT22;1020;48.854;8.830;2023-04-06T11:17:27;17.80;99.90
2030;DHT22;1020;48.854;8.830;2023-04-06T11:19:55;16.90;99.90
2030;DHT22;1020;48.854;8.830;2023-04-06T11:22:22;16.80;99.90
2030;DHT22;1020;48.854;8.830;2023-04-06T11:24:48;17.10;99.90
2030;DHT22;1020;48.854;8.830;2023-04-06T11:27:16;16.60;99.90
2030;DHT22;1020;48.854;8.830;2023-04-06T11:29:43;17.10;99.90
2030;DHT22;1020;48.854;8.830;2023-04-06T11:32:20;17.40;99.90
2030;DHT22;1020;48.854;8.830;2023-04-06T11:34:47;17.00;99.90
2030;DHT22;1020;48.854;8.830;2023-04-06T11:37:16;16.90;99.90
2030;DHT22;1020;48.854;8.830;2023-04-06T11:39:47;16.80;99.90
2030;DHT22;1020;48.854;8.830;2023-04-06T11:42:21;16.40;99.90
2030;DHT22;1020;48.854;8.830;2023-04-06T11:44:50;15.50;99.90
2030;DHT22;1020;48.854;8.830;2023-04-06T11:47:18;15.80;99.90
2030;DHT22;1020;48.854;8.830;2023-04-06T11:49:45;16.80;99.90
2030;DHT22;1020;48.854;8.830;2023-04-06T11:52:18;17.60;99.90
2030;DHT22;1020;48.854;8.830;2023-04-06T11:54:46;17.90;99.90
2030;DHT22;1020;48.854;8.830;2023-04-06T11:57:14;17.90;99.90
2030;DHT22;1020;48.854;8.830;2023-04-06T11:59:42;17.30;99.90
2030;DHT22;1020;48.854;8.830;2023-04-06T12:02:09;17.00;99.90
2030;DHT22;1020;48.854;8.830;2023-04-06T12:04:36;18.40;99.90
2030;DHT22;1020;48.854;8.830;2023-04-06T12:07:03;16.20;99.90
2030;DHT22;1020;48.854;8.830;2023-04-06T12:09:31;15.90;99.90
2030;DHT22;1020;48.854;8.830;2023-04-06T12:11:59;16.10;99.90
2030;DHT22;1020;48.854;8.830;2023-04-06T12:14:26;16.20;99.90
2030;DHT22;1020;48.854;8.830;2023-04-06T12:16:53;17.20;99.90
2030;DHT22;1020;48.854;8.830;2023-04-06T12:19:20;17.90;99.90
2030;DHT22;1020;48.854;8.830;2023-04-06T12:21:51;17.50;99.90
2030;DHT22;1020;48.854;8.830;2023-04-06T12:24:17;17.00;99.90
2030;DHT22;1020;48.854;8.830;2023-04-06T12:26:45;17.90;99.90
2030;DHT22;1020;48.854;8.830;2023-04-06T12:29:12;18.50;99.90
2030;DHT22;1020;48.854;8.830;2023-04-06T12:31:39;18.50;99.90
2030;DHT22;1020;48.854;8.830;2023-04-06T12:34:08;19.20;99.90
2030;DHT22;1020;48.854;8.830;2023-04-06T12:36:36;19.00;99.90
2030;DHT22;1020;48.854;8.830;2023-04-06T12:39:03;17.30;99.90
2030;DHT22;1020;48.854;8.830;2023-04-06T12:41:30;18.70;99.90
2030;DHT22;1020;48.854;8.830;2023-04-06T12:43:58;20.40;99.90
2030;DHT22;1020;48.854;8.830;2023-04-06T12:46:25;21.50;99.90
2030;DHT22;1020;48.854;8.830;2023-04-06T12:48:52;21.50;99.90
2030;DHT22;1020;48.854;8.830;2023-04-06T12:51:20;21.30;99.90
2030;DHT22;1020;48.854;8.830;2023-04-06T12:53:47;21.70;99.90
2030;DHT22;1020;48.854;8.830;2023-04-06T12:56:15;22.00;99.90
2030;DHT22;1020;48.854;8.830;2023-04-06T12:58:42;21.90;99.90
2030;DHT22;1020;48.854;8.830;2023-04-06T13:01:10;22.20;99.90
2030;DHT22;1020;48.854;8.830;2023-04-06T13:03:38;22.60;99.90
2030;DHT22;1020;48.854;8.830;2023-04-06T13:06:05;22.80;99.90
2030;DHT22;1020;48.854;8.830;2023-04-06T13:08:33;22.70;99.90
2030;DHT22;1020;48.854;8.830;2023-04-06T13:11:00;22.80;99.90
2030;DHT22;1020;48.854;8.830;2023-04-06T13:13:28;22.30;99.90
2030;DHT22;1020;48.854;8.830;2023-04-06T13:15:59;22.40;99.90
2030;DHT22;1020;48.854;8.830;2023-04-06T13:18:27;22.60;99.90
2030;DHT22;1020;48.854;8.830;2023-04-06T13:20:55;22.30;99.90
2030;DHT22;1020;48.854;8.830;2023-04-06T13:23:22;22.10;99.90
2030;DHT22;1020;48.854;8.830;2023-04-06T13:25:57;21.80;99.90
2030;DHT22;1020;48.854;8.830;2023-04-06T13:28:25;21.00;99.90
2030;DHT22;1020;48.854;8.830;2023-04-06T13:30:52;20.30;99.90
2030;DHT22;1020;48.854;8.830;2023-04-06T13:33:19;19.70;99.90
2030;DHT22;1020;48.854;8.830;2023-04-06T13:35:47;19.80;99.90
2030;DHT22;1020;48.854;8.830;2023-04-06T13:38:14;19.20;99.90
2030;DHT22;1020;48.854;8.830;2023-04-06T13:40:41;20.10;99.90
2030;DHT22;1020;48.854;8.830;2023-04-06T13:43:08;19.00;99.90
2030;DHT22;1020;48.854;8.830;2023-04-06T13:45:36;19.70;99.90
2030;DHT22;1020;48.854;8.830;2023-04-06T13:48:03;20.40;99.90
2030;DHT22;1020;48.854;8.830;2023-04-06T13:50:30;18.50;99.90
2030;DHT22;1020;48.854;8.830;2023-04-06T13:52:58;17.90;99.90
2030;DHT22;1020;48.854;8.830;2023-04-06T13:55:25;18.60;99.90
2030;DHT22;1020;48.854;8.830;2023-04-06T13:57:52;19.20;99.90
2030;DHT22;1020;48.854;8.830;2023-04-06T14:00:18;19.40;99.90
2030;DHT22;1020;48.854;8.830;2023-04-06T14:02:45;18.70;99.90
2030;DHT22;1020;48.854;8.830;2023-04-06T14:05:12;18.70;99.90
2030;DHT22;1020;48.854;8.830;2023-04-06T14:07:39;19.00;99.90
2030;DHT22;1020;48.854;8.830;2023-04-06T14:10:09;19.00;99.90
2030;DHT22;1020;48.854;8.830;2023-04-06T14:12:39;19.10;99.90
2030;DHT22;1020;48.854;8.830;2023-04-06T14:15:08;19.10;99.90
2030;DHT22;1020;48.854;8.830;2023-04-06T14:17:35;19.10;99.90
2030;DHT22;1020;48.854;8.830;2023-04-06T14:20:01;19.10;99.90
2030;DHT22;1020;48.854;8.830;2023-04-06T14:22:28;18.90;99.90
2030;DHT22;1020;48.854;8.830;2023-04-06T14:24:55;18.70;99.90
2030;DHT22;1020;48.854;8.830;2023-04-06T14:27:23;18.60;99.90
2030;DHT22;1020;48.854;8.830;2023-04-06T14:29:50;18.60;99.90
2030;DHT22;1020;48.854;8.830;2023-04-06T14:32:19;18.50;99.90
2030;DHT22;1020;48.854;8.830;2023-04-06T14:34:46;18.50;99.90
2030;DHT22;1020;48.854;8.830;2023-04-06T14:37:13;18.40;99.90
2030;DHT22;1020;48.854;8.830;2023-04-06T14:39:40;18.30;99.90
2030;DHT22;1020;48.854;8.830;2023-04-06T14:42:06;18.20;99.90
2030;DHT22;1020;48.854;8.830;2023-04-06T14:44:34;18.20;99.90
2030;DHT22;1020;48.854;8.830;2023-04-06T14:47:02;18.20;99.90
2030;DHT22;1020;48.854;8.830;2023-04-06T14:49:29;18.00;99.90
2030;DHT22;1020;48.854;8.830;2023-04-06T14:51:56;17.70;99.90
2030;DHT22;1020;48.854;8.830;2023-04-06T14:54:24;17.60;99.90
2030;DHT22;1020;48.854;8.830;2023-04-06T14:56:50;17.80;99.90
2030;DHT22;1020;48.854;8.830;2023-04-06T14:59:17;17.90;99.90
2030;DHT22;1020;48.854;8.830;2023-04-06T15:01:45;17.60;99.90
2030;DHT22;1020;48.854;8.830;2023-04-06T15:04:12;17.20;99.90
2030;DHT22;1020;48.854;8.830;2023-04-06T15:06:39;16.80;99.90
2030;DHT22;1020;48.854;8.830;2023-04-06T15:09:06;16.90;99.90
2030;DHT22;1020;48.854;8.830;2023-04-06T15:11:33;16.80;99.90
2030;DHT22;1020;48.854;8.830;2023-04-06T15:14:00;17.00;99.90
2030;DHT22;1020;48.854;8.830;2023-04-06T15:16:27;17.20;99.90
2030;DHT22;1020;48.854;8.830;2023-04-06T15:18:58;17.10;99.90
2030;DHT22;1020;48.854;8.830;2023-04-06T15:21:25;17.00;99.90
2030;DHT22;1020;48.854;8.830;2023-04-06T15:23:52;17.00;99.90
2030;DHT22;1020;48.854;8.830;2023-04-06T15:26:19;16.80;99.90
2030;DHT22;1020;48.854;8.830;2023-04-06T15:28:46;16.70;99.90
2030;DHT22;1020;48.854;8.830;2023-04-06T15:31:14;16.70;99.90
2030;DHT22;1020;48.854;8.830;2023-04-06T15:33:41;16.90;99.90
2030;DHT22;1020;48.854;8.830;2023-04-06T15:36:22;15.80;97.70
2030;DHT22;1020;48.854;8.830;2023-04-06T15:38:49;15.20;94.10
2030;DHT22;1020;48.854;8.830;2023-04-06T15:41:16;14.70;90.70
2030;DHT22;1020;48.854;8.830;2023-04-06T15:43:43;14.80;92.30
2030;DHT22;1020;48.854;8.830;2023-04-06T15:46:10;14.90;93.10
2030;DHT22;1020;48.854;8.830;2023-04-06T15:48:37;15.10;95.00
2030;DHT22;1020;48.854;8.830;2023-04-06T15:51:04;15.10;94.60
2030;DHT22;1020;48.854;8.830;2023-04-06T15:53:32;14.90;94.10
2030;DHT22;1020;48.854;8.830;2023-04-06T15:55:59;14.40;90.70
2030;DHT22;1020;48.854;8.830;2023-04-06T15:58:26;14.00;88.40
2030;DHT22;1020;48.854;8.830;2023-04-06T16:00:53;13.80;85.70
2030;DHT22;1020;48.854;8.830;2023-04-06T16:03:20;13.40;81.00
2030;DHT22;1020;48.854;8.830;2023-04-06T16:05:47;13.40;81.70
2030;DHT22;1020;48.854;8.830;2023-04-06T16:08:14;13.40;82.90
2030;DHT22;1020;48.854;8.830;2023-04-06T16:10:42;13.40;82.60
2030;DHT22;1020;48.854;8.830;2023-04-06T16:13:09;13.30;81.50